Nearby METAR Reports

 

CYYJ - Victoria Intl Ar, British Columbia, Canada
Distance from station: N 6km
Updated: 24/07/2024 08:00
Mostly cloudy
Mostly cloudy
 Wind from calm
Wind: Calm
Temperature: 17°C
Dew Point: 9°C
Humidity: 59%
Barometer: 1017.9 hPa
Clouds: Mostly cloudy
Visibility: 48 km
Cloud details: Few Clouds 152 m
Few Clouds 2438 m
Mostly cloudy 5791 m
2024/07/24 15:00 CYYJ 241500Z 00000KT 30SM FEW005 FEW080 BKN190 17/09 A3006 RMK FU1AC1AC5 FU TR VIS LWR E SLP181
CWKH - Malahat (autob), British Columbia, Canada
Distance from station: WSW 10km
Updated: 24/07/2024 08:00

 
Temperature: 17°C
Dew Point: 9°C
Humidity: 59%
2024/07/24 15:00 CWKH 241500Z AUTO 17/09 RMK AO1 SLP175 T01650087 52003
 
CWPF - Esquimalt Metoc, British Columbia, Canada
Distance from station: S 18km
Updated: 24/07/2024 08:30

 Wind from S
Wind: S 20 km/h
Temperature: 15°C
Dew Point: 11°C
Humidity: 77%
2024/07/24 15:30 CWPF 241530Z AUTO 19011KT 15/11 RMK AO1 SLP181 T01490108 55000
CWYJ - Victoria Univ, British Columbia, Canada
Distance from station: SSE 18km
Updated: 24/07/2024 08:00

 Wind from WSW
Wind: WSW 6 km/h
Temperature: 17°C
Dew Point: 10°C
Humidity: 64%
2024/07/24 15:00 CWYJ 241500Z AUTO 24003KT 17/10 RMK AO1 SLP182 T01730100 53001
 
CYWH - Victoria Harbour, British Columbia, Canada
Distance from station: S 20km
Updated: 24/07/2024 08:00

 
2024/07/24 15:00 CYWH 241500Z CCA 22010KT 15SM FEW070 SCT180 BKN240 14/10 A3007 RMK AC1AC3CI1 FU DIST W SLP185
CWLM - Victoria (autob), British Columbia, Canada
Distance from station: SSE 21km
Updated: 24/07/2024 08:00

 Wind from WSW
Wind: WSW 22 km/h
Temperature: 12°C
Dew Point: 10°C
Humidity: 88%
2024/07/24 15:00 CWLM 241500Z AUTO 24012KT 12/10 RMK AO1 SLP180 T01190098 53002
 
KFHR - Friday Harbor, Washington, USA
Distance from station: ESE 30km
Updated: 24/07/2024 07:53
Clear
Clear
 Wind from SSW
Wind: SSW 7 km/h
Temperature: 16°C
Dew Point: 11°C
Humidity: 72%
Barometer: 1019.3 hPa
Clouds: Clear
Visibility: 16 km
2024/07/24 14:53 KFHR 241453Z AUTO 21004KT 10SM CLR 16/11 A3010 RMK AO2 SLP191 T01560106 53004
CWQK - Race Rocks Autob, British Columbia, Canada
Distance from station: SSW 34km
Updated: 24/07/2024 08:00

 Wind from SW
Wind: SW 26 km/h
Temperature: 11°C
Dew Point: 11°C
Humidity: 100%
2024/07/24 15:00 CWQK 241500Z AUTO 23014KT 11/11 RMK AO1 PK WND 24018/1435 SLP190 T01070107 53003
 
CWEZ - Saturna Isl (map, British Columbia, Canada
Distance from station: NE 35km
Updated: 24/07/2024 08:00

 Wind from SSW
Wind: SSW 13 km/h
Temperature: 15°C
Dew Point: 10°C
Humidity: 72%
2024/07/24 15:00 CWEZ 241500Z AUTO 21007KT 15/10 RMK AO1 SLP184 T01520101 53003
KORS - Eastsound/Orcas, Washington, USA
Distance from station: ENE 39km
Updated: 24/07/2024 08:35
Clear
Clear
 Wind from S
Wind: S 20 km/h
Temperature: 16°C
Dew Point: 11°C
Humidity: 72%
Barometer: 1018.3 hPa
Clouds: Clear
Visibility: 14 km
2024/07/24 15:35 KORS 241535Z AUTO 17011KT 9SM CLR 16/11 A3007 RMK AO2
 
CWSP - Sheringham Autob, British Columbia, Canada
Distance from station: WSW 43km
Updated: 24/07/2024 08:00

 Wind from WNW
Wind: WNW 19 km/h
Temperature: 12°C
Dew Point: 9°C
Humidity: 82%
2024/07/24 15:00 CWSP 241500Z AUTO 29010KT 12/09 RMK AO1 SLP199 T01190090 55001